KLKV/LKV METAR and TAF weather

Enter ICAO airport designator
Station Type Date Time Source
KLKV METAR 2021/05/13 06:53 UTC NOAA

KLKV 130653Z AUTO 33007KT 10SM CLR 13/01 A3015 RMK AO2 SLP178 T01280011


Station Type Date Time Source
KLKV Decoded METAR 2021/05/13 06:53 UTC NOAA

Lakeview, Lake County Airport, OR, United States (KLKV) 42-10N 120-24W
May 13, 2021 - 02:53 AM EDT / 2021.05.13 0653 UTC
Wind: from the NNW (330 degrees) at 8 MPH (7 KT):0
Visibility: 10 mile(s):0
Sky conditions: clear
Temperature: 55.0 F (12.8 C)
Dew Point: 34.0 F (1.1 C)
Relative Humidity: 44%
Pressure (altimeter): 30.15 in. Hg (1020 hPa)
ob: KLKV 130653Z AUTO 33007KT 10SM CLR 13/01 A3015 RMK AO2 SLP178 T01280011
cycle: 7

Station Type Date Time Source
KLKV TAF UTC NOAA

Error!

Example: see airport list